Clio, Iowa
Current Conditions -  °F | °C
As of 1:53 AM on Saturday 25 Oct 2014 (Local Time) from KLWD Reporting Station
Moderate Fog Moderate Fog  
Wind Chill: 53°   Ceiling: NA
Heat Index: 53°   Visibility: 0.25mi
Dew Point: 52°   Wind: 3mph
Humidity: 96%   Direction: 260°W
Pressure: 29.99"   Gusts: NA
Location:  40.64°N, 93.45°W
Report Text: KLWD 250653Z AUTO 26003KT 1/4SM FG 12/11 A2999 RMK AO2 SLP155 T01170111 $
Loading
Personal Weather Stations






























Interactive Weather Map
Tropical Storm Tracking
New forecast layout! Learn more

10-Day Weather Forecast

Advertisements
Track Severe Weather on mobile